Pittsburgh, Pennsylvania
Traffic Map
Current Weather Conditions
Pittsburgh, Pennsylvania
Overcast
Overcast
29°
Feels Like: 29°
Wind Chill: 29° Ceiling: 2500
Heat Index: 29° Visibility: 10mi
Dew Point: 18° Wind: 3mph
Humidity: 64% Direction: 320° (NW)
Pressure: 30.24in Gusts: 0mph
Raw Report DataKAGC 200253Z 32003KT 10SM OVC025 M02/M08 A3024 RMK AO2 SLP261 T10171078 50004
Traffic Incident Summary
Active as of:
Severity:
Category:
InformationThere was an issue retrieving the traffic information for this location. Please try a different location or try again shortly.
Advertisements
Track Severe Weather on mobile